sensor_id;sensor_type;location;lat;lon;timestamp;P1;durP1;ratioP1;P2;durP2;ratioP2
21095;SDS011;10706;49.036;12.112;2024-03-06T00:02:12;17.73;;;6.20;;
21095;SDS011;10706;49.036;12.112;2024-03-06T00:04:37;21.63;;;7.33;;
21095;SDS011;10706;49.036;12.112;2024-03-06T00:07:03;19.97;;;7.13;;
21095;SDS011;10706;49.036;12.112;2024-03-06T00:09:29;19.30;;;7.73;;
21095;SDS011;10706;49.036;12.112;2024-03-06T00:11:55;20.10;;;7.63;;
21095;SDS011;10706;49.036;12.112;2024-03-06T00:14:22;18.93;;;6.73;;
21095;SDS011;10706;49.036;12.112;2024-03-06T00:16:49;22.17;;;7.70;;
21095;SDS011;10706;49.036;12.112;2024-03-06T00:19:18;20.67;;;7.37;;
21095;SDS011;10706;49.036;12.112;2024-03-06T00:21:45;22.63;;;8.43;;
21095;SDS011;10706;49.036;12.112;2024-03-06T00:24:15;23.67;;;8.07;;
21095;SDS011;10706;49.036;12.112;2024-03-06T00:26:41;20.47;;;7.83;;
21095;SDS011;10706;49.036;12.112;2024-03-06T00:29:09;20.57;;;7.43;;
21095;SDS011;10706;49.036;12.112;2024-03-06T00:31:35;20.10;;;8.03;;
21095;SDS011;10706;49.036;12.112;2024-03-06T00:34:01;19.50;;;7.67;;
21095;SDS011;10706;49.036;12.112;2024-03-06T00:36:28;20.33;;;7.50;;
21095;SDS011;10706;49.036;12.112;2024-03-06T00:38:54;18.03;;;7.90;;
21095;SDS011;10706;49.036;12.112;2024-03-06T00:41:19;21.23;;;8.23;;
21095;SDS011;10706;49.036;12.112;2024-03-06T00:43:45;17.77;;;6.90;;
21095;SDS011;10706;49.036;12.112;2024-03-06T00:46:11;21.73;;;7.77;;
21095;SDS011;10706;49.036;12.112;2024-03-06T00:48:37;18.37;;;7.53;;
21095;SDS011;10706;49.036;12.112;2024-03-06T00:51:07;20.93;;;7.63;;
21095;SDS011;10706;49.036;12.112;2024-03-06T00:53:34;19.57;;;7.73;;
21095;SDS011;10706;49.036;12.112;2024-03-06T00:56:00;20.57;;;7.90;;
21095;SDS011;10706;49.036;12.112;2024-03-06T00:58:27;21.30;;;6.93;;
21095;SDS011;10706;49.036;12.112;2024-03-06T01:00:53;19.53;;;7.40;;
21095;SDS011;10706;49.036;12.112;2024-03-06T01:03:19;18.07;;;7.57;;
21095;SDS011;10706;49.036;12.112;2024-03-06T01:05:45;21.07;;;7.47;;
21095;SDS011;10706;49.036;12.112;2024-03-06T01:08:11;23.27;;;7.93;;
21095;SDS011;10706;49.036;12.112;2024-03-06T01:10:37;19.80;;;7.53;;
21095;SDS011;10706;49.036;12.112;2024-03-06T01:13:04;20.70;;;7.47;;
21095;SDS011;10706;49.036;12.112;2024-03-06T01:15:29;19.07;;;7.00;;
21095;SDS011;10706;49.036;12.112;2024-03-06T01:17:55;22.73;;;7.63;;
21095;SDS011;10706;49.036;12.112;2024-03-06T01:20:22;20.47;;;7.47;;
21095;SDS011;10706;49.036;12.112;2024-03-06T01:22:48;21.40;;;8.33;;
21095;SDS011;10706;49.036;12.112;2024-03-06T01:25:14;22.73;;;8.83;;
21095;SDS011;10706;49.036;12.112;2024-03-06T01:27:40;18.77;;;7.30;;
21095;SDS011;10706;49.036;12.112;2024-03-06T01:30:06;22.80;;;8.77;;
21095;SDS011;10706;49.036;12.112;2024-03-06T01:32:33;18.73;;;7.47;;
21095;SDS011;10706;49.036;12.112;2024-03-06T01:34:58;17.67;;;7.33;;
21095;SDS011;10706;49.036;12.112;2024-03-06T01:37:24;21.73;;;8.20;;
21095;SDS011;10706;49.036;12.112;2024-03-06T01:39:50;21.43;;;8.40;;
21095;SDS011;10706;49.036;12.112;2024-03-06T01:42:17;19.47;;;7.10;;
21095;SDS011;10706;49.036;12.112;2024-03-06T01:44:43;21.60;;;8.77;;
21095;SDS011;10706;49.036;12.112;2024-03-06T01:47:09;24.43;;;8.60;;
21095;SDS011;10706;49.036;12.112;2024-03-06T01:49:34;21.37;;;8.27;;
21095;SDS011;10706;49.036;12.112;2024-03-06T01:52:00;28.23;;;8.17;;
21095;SDS011;10706;49.036;12.112;2024-03-06T01:54:28;20.90;;;8.27;;
21095;SDS011;10706;49.036;12.112;2024-03-06T01:56:55;23.03;;;8.17;;
21095;SDS011;10706;49.036;12.112;2024-03-06T01:59:22;19.20;;;7.87;;
21095;SDS011;10706;49.036;12.112;2024-03-06T02:01:52;19.33;;;8.10;;
21095;SDS011;10706;49.036;12.112;2024-03-06T02:04:18;20.77;;;8.80;;
21095;SDS011;10706;49.036;12.112;2024-03-06T02:06:45;19.20;;;8.13;;
21095;SDS011;10706;49.036;12.112;2024-03-06T02:09:12;20.73;;;8.00;;
21095;SDS011;10706;49.036;12.112;2024-03-06T02:11:39;23.00;;;7.87;;
21095;SDS011;10706;49.036;12.112;2024-03-06T02:14:05;21.40;;;7.93;;
21095;SDS011;10706;49.036;12.112;2024-03-06T02:16:34;17.97;;;7.67;;
21095;SDS011;10706;49.036;12.112;2024-03-06T02:19:01;19.40;;;7.97;;
21095;SDS011;10706;49.036;12.112;2024-03-06T02:21:28;20.47;;;7.27;;
21095;SDS011;10706;49.036;12.112;2024-03-06T02:23:54;25.27;;;8.43;;
21095;SDS011;10706;49.036;12.112;2024-03-06T02:26:20;19.83;;;7.80;;
21095;SDS011;10706;49.036;12.112;2024-03-06T02:28:50;18.57;;;8.10;;
21095;SDS011;10706;49.036;12.112;2024-03-06T02:31:19;18.87;;;8.10;;
21095;SDS011;10706;49.036;12.112;2024-03-06T02:33:46;22.93;;;8.40;;
21095;SDS011;10706;49.036;12.112;2024-03-06T02:36:13;23.40;;;8.63;;
21095;SDS011;10706;49.036;12.112;2024-03-06T02:38:40;19.83;;;7.50;;
21095;SDS011;10706;49.036;12.112;2024-03-06T02:41:06;24.33;;;9.20;;
21095;SDS011;10706;49.036;12.112;2024-03-06T02:43:33;22.67;;;8.60;;
21095;SDS011;10706;49.036;12.112;2024-03-06T02:45:59;23.17;;;8.30;;
21095;SDS011;10706;49.036;12.112;2024-03-06T02:48:24;22.63;;;9.63;;
21095;SDS011;10706;49.036;12.112;2024-03-06T02:50:50;22.93;;;8.87;;
21095;SDS011;10706;49.036;12.112;2024-03-06T02:53:16;24.10;;;8.73;;
21095;SDS011;10706;49.036;12.112;2024-03-06T02:55:42;21.90;;;8.63;;
21095;SDS011;10706;49.036;12.112;2024-03-06T02:58:09;22.50;;;8.47;;
21095;SDS011;10706;49.036;12.112;2024-03-06T03:00:35;21.60;;;7.90;;
21095;SDS011;10706;49.036;12.112;2024-03-06T03:03:01;20.77;;;8.27;;
21095;SDS011;10706;49.036;12.112;2024-03-06T03:05:27;21.00;;;8.00;;
21095;SDS011;10706;49.036;12.112;2024-03-06T03:07:53;19.90;;;7.30;;
21095;SDS011;10706;49.036;12.112;2024-03-06T03:10:19;19.50;;;8.03;;
21095;SDS011;10706;49.036;12.112;2024-03-06T03:12:45;23.60;;;9.57;;
21095;SDS011;10706;49.036;12.112;2024-03-06T03:15:11;20.77;;;7.87;;
21095;SDS011;10706;49.036;12.112;2024-03-06T03:17:38;21.27;;;9.10;;
21095;SDS011;10706;49.036;12.112;2024-03-06T03:20:04;22.07;;;8.70;;
21095;SDS011;10706;49.036;12.112;2024-03-06T03:22:35;22.03;;;8.30;;
21095;SDS011;10706;49.036;12.112;2024-03-06T03:25:03;22.70;;;9.20;;
21095;SDS011;10706;49.036;12.112;2024-03-06T03:27:32;20.97;;;8.17;;
21095;SDS011;10706;49.036;12.112;2024-03-06T03:29:58;20.87;;;7.40;;
21095;SDS011;10706;49.036;12.112;2024-03-06T03:32:24;21.83;;;8.77;;
21095;SDS011;10706;49.036;12.112;2024-03-06T03:34:50;18.87;;;8.03;;
21095;SDS011;10706;49.036;12.112;2024-03-06T03:37:16;21.13;;;8.00;;
21095;SDS011;10706;49.036;12.112;2024-03-06T03:39:43;21.03;;;8.57;;
21095;SDS011;10706;49.036;12.112;2024-03-06T03:42:09;24.73;;;8.63;;
21095;SDS011;10706;49.036;12.112;2024-03-06T03:44:35;20.37;;;8.10;;
21095;SDS011;10706;49.036;12.112;2024-03-06T03:47:02;20.63;;;8.80;;
21095;SDS011;10706;49.036;12.112;2024-03-06T03:49:28;21.57;;;9.17;;
21095;SDS011;10706;49.036;12.112;2024-03-06T03:51:54;22.27;;;9.13;;
21095;SDS011;10706;49.036;12.112;2024-03-06T03:54:20;23.27;;;8.70;;
21095;SDS011;10706;49.036;12.112;2024-03-06T03:56:46;20.57;;;8.67;;
21095;SDS011;10706;49.036;12.112;2024-03-06T03:59:13;27.27;;;9.33;;
21095;SDS011;10706;49.036;12.112;2024-03-06T04:01:39;20.77;;;7.97;;
21095;SDS011;10706;49.036;12.112;2024-03-06T04:04:05;24.43;;;9.17;;
21095;SDS011;10706;49.036;12.112;2024-03-06T04:06:33;25.30;;;8.63;;
21095;SDS011;10706;49.036;12.112;2024-03-06T04:08:59;27.67;;;8.97;;
21095;SDS011;10706;49.036;12.112;2024-03-06T04:11:25;17.17;;;7.17;;
21095;SDS011;10706;49.036;12.112;2024-03-06T04:13:51;24.57;;;8.47;;
21095;SDS011;10706;49.036;12.112;2024-03-06T04:16:17;21.53;;;8.23;;
21095;SDS011;10706;49.036;12.112;2024-03-06T04:18:43;25.13;;;8.60;;
21095;SDS011;10706;49.036;12.112;2024-03-06T04:21:10;20.43;;;8.27;;
21095;SDS011;10706;49.036;12.112;2024-03-06T04:23:36;21.20;;;8.03;;
21095;SDS011;10706;49.036;12.112;2024-03-06T04:26:03;26.03;;;10.07;;
21095;SDS011;10706;49.036;12.112;2024-03-06T04:28:29;24.90;;;8.67;;
21095;SDS011;10706;49.036;12.112;2024-03-06T04:30:55;21.60;;;7.97;;
21095;SDS011;10706;49.036;12.112;2024-03-06T04:33:21;22.23;;;9.03;;
21095;SDS011;10706;49.036;12.112;2024-03-06T04:35:47;23.13;;;9.47;;
21095;SDS011;10706;49.036;12.112;2024-03-06T04:38:13;31.60;;;10.07;;
21095;SDS011;10706;49.036;12.112;2024-03-06T04:40:39;24.93;;;9.80;;
21095;SDS011;10706;49.036;12.112;2024-03-06T04:43:05;27.57;;;9.43;;
21095;SDS011;10706;49.036;12.112;2024-03-06T04:45:32;26.77;;;10.23;;
21095;SDS011;10706;49.036;12.112;2024-03-06T04:47:58;30.07;;;10.63;;
21095;SDS011;10706;49.036;12.112;2024-03-06T04:50:24;30.57;;;10.73;;
21095;SDS011;10706;49.036;12.112;2024-03-06T04:52:52;25.67;;;9.63;;
21095;SDS011;10706;49.036;12.112;2024-03-06T04:55:18;35.83;;;11.93;;
21095;SDS011;10706;49.036;12.112;2024-03-06T04:57:47;31.93;;;11.97;;
21095;SDS011;10706;49.036;12.112;2024-03-06T05:00:14;30.07;;;11.73;;
21095;SDS011;10706;49.036;12.112;2024-03-06T05:02:40;27.77;;;10.40;;
21095;SDS011;10706;49.036;12.112;2024-03-06T05:05:08;36.57;;;11.63;;
21095;SDS011;10706;49.036;12.112;2024-03-06T05:07:34;30.87;;;11.33;;
21095;SDS011;10706;49.036;12.112;2024-03-06T05:10:00;30.87;;;11.10;;
21095;SDS011;10706;49.036;12.112;2024-03-06T05:12:26;30.93;;;11.33;;
21095;SDS011;10706;49.036;12.112;2024-03-06T05:14:53;32.20;;;11.67;;
21095;SDS011;10706;49.036;12.112;2024-03-06T05:17:20;34.13;;;12.13;;
21095;SDS011;10706;49.036;12.112;2024-03-06T05:19:47;27.57;;;10.97;;
21095;SDS011;10706;49.036;12.112;2024-03-06T05:22:14;31.93;;;10.77;;
21095;SDS011;10706;49.036;12.112;2024-03-06T05:24:42;30.73;;;10.07;;
21095;SDS011;10706;49.036;12.112;2024-03-06T05:27:08;34.90;;;12.70;;
21095;SDS011;10706;49.036;12.112;2024-03-06T05:29:36;31.10;;;11.73;;
21095;SDS011;10706;49.036;12.112;2024-03-06T05:32:02;35.10;;;12.50;;
21095;SDS011;10706;49.036;12.112;2024-03-06T05:34:28;34.43;;;12.20;;
21095;SDS011;10706;49.036;12.112;2024-03-06T05:36:55;36.50;;;13.10;;
21095;SDS011;10706;49.036;12.112;2024-03-06T05:39:21;38.57;;;12.70;;
21095;SDS011;10706;49.036;12.112;2024-03-06T05:41:47;33.07;;;12.17;;
21095;SDS011;10706;49.036;12.112;2024-03-06T05:44:13;42.10;;;13.83;;
21095;SDS011;10706;49.036;12.112;2024-03-06T05:46:39;37.67;;;12.03;;
21095;SDS011;10706;49.036;12.112;2024-03-06T05:49:05;34.90;;;12.50;;
21095;SDS011;10706;49.036;12.112;2024-03-06T05:51:31;37.00;;;13.27;;
21095;SDS011;10706;49.036;12.112;2024-03-06T05:53:57;33.20;;;12.43;;
21095;SDS011;10706;49.036;12.112;2024-03-06T05:56:24;32.97;;;13.30;;
21095;SDS011;10706;49.036;12.112;2024-03-06T05:58:50;35.87;;;12.97;;
21095;SDS011;10706;49.036;12.112;2024-03-06T06:01:16;35.73;;;12.20;;
21095;SDS011;10706;49.036;12.112;2024-03-06T06:03:46;36.17;;;13.30;;
21095;SDS011;10706;49.036;12.112;2024-03-06T06:06:15;35.33;;;13.60;;
21095;SDS011;10706;49.036;12.112;2024-03-06T06:08:42;36.30;;;12.33;;
21095;SDS011;10706;49.036;12.112;2024-03-06T06:11:09;38.20;;;12.80;;
21095;SDS011;10706;49.036;12.112;2024-03-06T06:13:36;31.53;;;11.83;;
21095;SDS011;10706;49.036;12.112;2024-03-06T06:16:02;34.37;;;13.27;;
21095;SDS011;10706;49.036;12.112;2024-03-06T06:18:28;35.97;;;12.13;;
21095;SDS011;10706;49.036;12.112;2024-03-06T06:20:55;40.27;;;13.13;;
21095;SDS011;10706;49.036;12.112;2024-03-06T06:23:21;43.20;;;14.87;;
21095;SDS011;10706;49.036;12.112;2024-03-06T06:25:50;40.17;;;14.43;;
21095;SDS011;10706;49.036;12.112;2024-03-06T06:28:16;37.83;;;14.33;;
21095;SDS011;10706;49.036;12.112;2024-03-06T06:30:43;38.90;;;15.20;;
21095;SDS011;10706;49.036;12.112;2024-03-06T06:33:09;37.27;;;14.00;;
21095;SDS011;10706;49.036;12.112;2024-03-06T06:35:35;39.10;;;13.87;;
21095;SDS011;10706;49.036;12.112;2024-03-06T06:38:01;46.37;;;15.97;;
21095;SDS011;10706;49.036;12.112;2024-03-06T06:40:27;39.70;;;15.50;;
21095;SDS011;10706;49.036;12.112;2024-03-06T06:42:53;40.20;;;15.47;;
21095;SDS011;10706;49.036;12.112;2024-03-06T06:45:19;31.10;;;13.70;;
21095;SDS011;10706;49.036;12.112;2024-03-06T06:47:47;35.37;;;13.90;;
21095;SDS011;10706;49.036;12.112;2024-03-06T06:50:16;39.03;;;15.13;;
21095;SDS011;10706;49.036;12.112;2024-03-06T06:52:45;34.40;;;13.37;;
21095;SDS011;10706;49.036;12.112;2024-03-06T06:55:12;38.40;;;15.03;;
21095;SDS011;10706;49.036;12.112;2024-03-06T06:57:41;44.53;;;16.07;;
21095;SDS011;10706;49.036;12.112;2024-03-06T07:00:09;40.30;;;15.10;;
21095;SDS011;10706;49.036;12.112;2024-03-06T07:02:39;38.33;;;14.40;;
21095;SDS011;10706;49.036;12.112;2024-03-06T07:05:09;34.37;;;13.93;;
21095;SDS011;10706;49.036;12.112;2024-03-06T07:07:35;32.30;;;13.43;;
21095;SDS011;10706;49.036;12.112;2024-03-06T07:10:03;37.03;;;14.07;;
21095;SDS011;10706;49.036;12.112;2024-03-06T07:12:29;34.47;;;13.00;;
21095;SDS011;10706;49.036;12.112;2024-03-06T07:14:56;32.50;;;13.23;;
21095;SDS011;10706;49.036;12.112;2024-03-06T07:17:22;31.57;;;13.40;;
21095;SDS011;10706;49.036;12.112;2024-03-06T07:19:52;35.63;;;13.70;;
21095;SDS011;10706;49.036;12.112;2024-03-06T07:22:18;31.90;;;11.50;;
21095;SDS011;10706;49.036;12.112;2024-03-06T07:24:44;29.47;;;11.53;;
21095;SDS011;10706;49.036;12.112;2024-03-06T07:27:10;30.93;;;12.10;;
21095;SDS011;10706;49.036;12.112;2024-03-06T07:29:42;39.30;;;14.67;;
21095;SDS011;10706;49.036;12.112;2024-03-06T07:32:09;30.17;;;12.07;;
21095;SDS011;10706;49.036;12.112;2024-03-06T07:34:35;30.80;;;12.20;;
21095;SDS011;10706;49.036;12.112;2024-03-06T07:37:01;36.93;;;12.27;;
21095;SDS011;10706;49.036;12.112;2024-03-06T07:39:28;35.63;;;13.63;;
21095;SDS011;10706;49.036;12.112;2024-03-06T07:41:56;29.13;;;11.53;;
21095;SDS011;10706;49.036;12.112;2024-03-06T07:44:22;30.20;;;11.80;;
21095;SDS011;10706;49.036;12.112;2024-03-06T07:46:48;32.73;;;11.93;;
21095;SDS011;10706;49.036;12.112;2024-03-06T07:49:14;30.47;;;11.63;;
21095;SDS011;10706;49.036;12.112;2024-03-06T07:51:40;31.33;;;11.33;;
21095;SDS011;10706;49.036;12.112;2024-03-06T07:54:06;31.30;;;11.23;;
21095;SDS011;10706;49.036;12.112;2024-03-06T07:56:32;29.97;;;11.33;;
21095;SDS011;10706;49.036;12.112;2024-03-06T07:58:59;32.90;;;12.50;;
21095;SDS011;10706;49.036;12.112;2024-03-06T08:01:26;30.53;;;11.40;;
21095;SDS011;10706;49.036;12.112;2024-03-06T08:03:54;33.07;;;12.03;;
21095;SDS011;10706;49.036;12.112;2024-03-06T08:06:20;28.70;;;11.30;;
21095;SDS011;10706;49.036;12.112;2024-03-06T08:08:46;30.03;;;11.67;;
21095;SDS011;10706;49.036;12.112;2024-03-06T08:11:13;27.97;;;10.93;;
21095;SDS011;10706;49.036;12.112;2024-03-06T08:13:39;28.83;;;11.13;;
21095;SDS011;10706;49.036;12.112;2024-03-06T08:16:05;34.47;;;12.37;;
21095;SDS011;10706;49.036;12.112;2024-03-06T08:18:33;28.03;;;10.40;;
21095;SDS011;10706;49.036;12.112;2024-03-06T08:21:00;25.77;;;11.17;;
21095;SDS011;10706;49.036;12.112;2024-03-06T08:23:27;31.13;;;11.60;;
21095;SDS011;10706;49.036;12.112;2024-03-06T08:25:53;33.93;;;12.37;;
21095;SDS011;10706;49.036;12.112;2024-03-06T08:28:20;30.33;;;11.47;;
21095;SDS011;10706;49.036;12.112;2024-03-06T08:30:46;26.33;;;11.00;;
21095;SDS011;10706;49.036;12.112;2024-03-06T08:33:12;26.97;;;9.57;;
21095;SDS011;10706;49.036;12.112;2024-03-06T08:35:39;30.60;;;12.17;;
21095;SDS011;10706;49.036;12.112;2024-03-06T08:38:05;30.70;;;10.63;;
21095;SDS011;10706;49.036;12.112;2024-03-06T08:40:31;29.83;;;10.80;;
21095;SDS011;10706;49.036;12.112;2024-03-06T08:42:58;31.10;;;10.80;;
21095;SDS011;10706;49.036;12.112;2024-03-06T08:45:24;33.67;;;12.47;;
21095;SDS011;10706;49.036;12.112;2024-03-06T08:47:50;31.07;;;12.53;;
21095;SDS011;10706;49.036;12.112;2024-03-06T08:50:18;30.63;;;12.73;;
21095;SDS011;10706;49.036;12.112;2024-03-06T08:52:45;32.10;;;11.53;;
21095;SDS011;10706;49.036;12.112;2024-03-06T08:55:11;28.20;;;11.67;;
21095;SDS011;10706;49.036;12.112;2024-03-06T08:57:38;28.13;;;11.47;;
21095;SDS011;10706;49.036;12.112;2024-03-06T09:00:04;29.87;;;12.07;;
21095;SDS011;10706;49.036;12.112;2024-03-06T09:02:38;28.63;;;11.75;;
21095;SDS011;10706;49.036;12.112;2024-03-06T09:05:05;23.43;;;10.90;;
21095;SDS011;10706;49.036;12.112;2024-03-06T09:07:33;25.47;;;9.80;;
21095;SDS011;10706;49.036;12.112;2024-03-06T09:10:03;29.40;;;11.67;;
21095;SDS011;10706;49.036;12.112;2024-03-06T09:12:33;27.40;;;10.70;;
21095;SDS011;10706;49.036;12.112;2024-03-06T09:14:59;30.47;;;11.70;;
21095;SDS011;10706;49.036;12.112;2024-03-06T09:17:26;27.60;;;11.27;;
21095;SDS011;10706;49.036;12.112;2024-03-06T09:19:52;23.37;;;8.53;;
21095;SDS011;10706;49.036;12.112;2024-03-06T09:22:19;26.90;;;10.85;;
21095;SDS011;10706;49.036;12.112;2024-03-06T09:24:45;27.57;;;10.67;;
21095;SDS011;10706;49.036;12.112;2024-03-06T09:27:12;22.45;;;9.75;;
21095;SDS011;10706;49.036;12.112;2024-03-06T09:29:39;25.35;;;9.75;;
21095;SDS011;10706;49.036;12.112;2024-03-06T09:32:05;25.20;;;9.50;;
21095;SDS011;10706;49.036;12.112;2024-03-06T09:34:31;25.48;;;10.38;;
21095;SDS011;10706;49.036;12.112;2024-03-06T09:36:57;29.80;;;11.60;;
21095;SDS011;10706;49.036;12.112;2024-03-06T09:39:24;30.38;;;11.57;;
21095;SDS011;10706;49.036;12.112;2024-03-06T09:41:50;23.60;;;9.50;;
21095;SDS011;10706;49.036;12.112;2024-03-06T09:44:18;22.65;;;9.35;;
21095;SDS011;10706;49.036;12.112;2024-03-06T09:46:46;25.73;;;9.20;;
21095;SDS011;10706;49.036;12.112;2024-03-06T09:49:14;23.02;;;9.63;;
21095;SDS011;10706;49.036;12.112;2024-03-06T09:51:42;28.60;;;12.10;;
21095;SDS011;10706;49.036;12.112;2024-03-06T09:54:14;26.13;;;9.60;;
21095;SDS011;10706;49.036;12.112;2024-03-06T09:56:45;24.45;;;9.27;;
21095;SDS011;10706;49.036;12.112;2024-03-06T09:59:12;23.05;;;9.57;;
21095;SDS011;10706;49.036;12.112;2024-03-06T10:01:49;24.92;;;9.77;;
21095;SDS011;10706;49.036;12.112;2024-03-06T10:04:24;25.05;;;9.88;;
21095;SDS011;10706;49.036;12.112;2024-03-06T10:06:55;24.88;;;10.15;;
21095;SDS011;10706;49.036;12.112;2024-03-06T10:09:22;25.38;;;9.75;;
21095;SDS011;10706;49.036;12.112;2024-03-06T10:11:50;21.38;;;8.23;;
21095;SDS011;10706;49.036;12.112;2024-03-06T10:14:18;24.52;;;9.00;;
21095;SDS011;10706;49.036;12.112;2024-03-06T10:17:00;22.48;;;8.45;;
21095;SDS011;10706;49.036;12.112;2024-03-06T10:19:27;25.60;;;9.85;;
21095;SDS011;10706;49.036;12.112;2024-03-06T10:21:55;21.40;;;8.90;;
21095;SDS011;10706;49.036;12.112;2024-03-06T10:24:23;20.50;;;8.07;;
21095;SDS011;10706;49.036;12.112;2024-03-06T10:26:52;23.52;;;9.02;;
21095;SDS011;10706;49.036;12.112;2024-03-06T10:29:21;24.30;;;8.07;;
21095;SDS011;10706;49.036;12.112;2024-03-06T10:31:51;21.25;;;8.63;;
21095;SDS011;10706;49.036;12.112;2024-03-06T10:34:22;20.85;;;7.95;;
21095;SDS011;10706;49.036;12.112;2024-03-06T10:36:51;20.77;;;7.20;;
21095;SDS011;10706;49.036;12.112;2024-03-06T10:39:24;23.27;;;8.93;;
21095;SDS011;10706;49.036;12.112;2024-03-06T10:41:54;20.80;;;8.20;;
21095;SDS011;10706;49.036;12.112;2024-03-06T10:44:22;22.90;;;8.77;;
21095;SDS011;10706;49.036;12.112;2024-03-06T10:46:58;20.92;;;8.48;;
21095;SDS011;10706;49.036;12.112;2024-03-06T10:49:27;23.23;;;7.78;;
21095;SDS011;10706;49.036;12.112;2024-03-06T10:51:59;20.23;;;8.88;;
21095;SDS011;10706;49.036;12.112;2024-03-06T10:54:28;20.58;;;8.63;;
21095;SDS011;10706;49.036;12.112;2024-03-06T10:56:55;25.38;;;8.25;;
21095;SDS011;10706;49.036;12.112;2024-03-06T10:59:24;17.90;;;7.53;;
21095;SDS011;10706;49.036;12.112;2024-03-06T11:01:55;19.30;;;6.80;;
21095;SDS011;10706;49.036;12.112;2024-03-06T11:04:25;18.58;;;7.85;;
21095;SDS011;10706;49.036;12.112;2024-03-06T11:06:55;24.48;;;8.43;;
21095;SDS011;10706;49.036;12.112;2024-03-06T11:09:22;23.10;;;8.35;;
21095;SDS011;10706;49.036;12.112;2024-03-06T11:11:49;21.33;;;9.13;;
21095;SDS011;10706;49.036;12.112;2024-03-06T11:14:22;19.13;;;8.48;;
21095;SDS011;10706;49.036;12.112;2024-03-06T11:16:56;21.92;;;9.32;;
21095;SDS011;10706;49.036;12.112;2024-03-06T11:19:32;20.83;;;8.45;;
21095;SDS011;10706;49.036;12.112;2024-03-06T11:28:21;20.88;;;7.90;;
21095;SDS011;10706;49.036;12.112;2024-03-06T11:31:01;21.05;;;8.07;;
21095;SDS011;10706;49.036;12.112;2024-03-06T11:33:36;20.58;;;8.20;;
21095;SDS011;10706;49.036;12.112;2024-03-06T11:36:26;23.55;;;9.50;;
21095;SDS011;10706;49.036;12.112;2024-03-06T11:41:25;20.40;;;8.00;;
21095;SDS011;10706;49.036;12.112;2024-03-06T11:43:53;22.90;;;8.45;;
21095;SDS011;10706;49.036;12.112;2024-03-06T11:46:21;20.30;;;8.68;;
21095;SDS011;10706;49.036;12.112;2024-03-06T11:48:52;22.85;;;8.43;;
21095;SDS011;10706;49.036;12.112;2024-03-06T11:51:24;20.27;;;8.40;;
21095;SDS011;10706;49.036;12.112;2024-03-06T11:53:51;20.65;;;8.02;;
21095;SDS011;10706;49.036;12.112;2024-03-06T11:56:19;16.95;;;6.60;;
21095;SDS011;10706;49.036;12.112;2024-03-06T11:58:45;20.13;;;7.57;;
21095;SDS011;10706;49.036;12.112;2024-03-06T12:01:12;19.23;;;7.78;;
21095;SDS011;10706;49.036;12.112;2024-03-06T12:03:42;18.73;;;7.05;;
21095;SDS011;10706;49.036;12.112;2024-03-06T12:06:08;20.13;;;7.80;;
21095;SDS011;10706;49.036;12.112;2024-03-06T12:08:34;21.45;;;7.40;;
21095;SDS011;10706;49.036;12.112;2024-03-06T12:11:02;21.20;;;7.35;;
21095;SDS011;10706;49.036;12.112;2024-03-06T12:13:30;24.15;;;7.20;;
21095;SDS011;10706;49.036;12.112;2024-03-06T12:15:57;18.10;;;7.45;;
21095;SDS011;10706;49.036;12.112;2024-03-06T12:18:24;19.45;;;7.22;;
21095;SDS011;10706;49.036;12.112;2024-03-06T12:20:50;21.58;;;7.55;;
21095;SDS011;10706;49.036;12.112;2024-03-06T12:23:22;20.80;;;7.93;;
21095;SDS011;10706;49.036;12.112;2024-03-06T12:25:50;20.50;;;7.63;;
21095;SDS011;10706;49.036;12.112;2024-03-06T12:28:28;26.52;;;8.63;;
21095;SDS011;10706;49.036;12.112;2024-03-06T12:30:54;19.88;;;7.40;;
21095;SDS011;10706;49.036;12.112;2024-03-06T12:33:19;20.25;;;8.18;;
21095;SDS011;10706;49.036;12.112;2024-03-06T12:35:45;23.05;;;9.25;;
21095;SDS011;10706;49.036;12.112;2024-03-06T12:38:13;20.85;;;8.00;;
21095;SDS011;10706;49.036;12.112;2024-03-06T12:40:41;17.23;;;6.70;;
21095;SDS011;10706;49.036;12.112;2024-03-06T12:43:07;19.17;;;7.53;;
21095;SDS011;10706;49.036;12.112;2024-03-06T12:45:34;20.20;;;7.70;;
21095;SDS011;10706;49.036;12.112;2024-03-06T12:48:01;20.58;;;7.43;;
21095;SDS011;10706;49.036;12.112;2024-03-06T12:50:30;18.85;;;7.80;;
21095;SDS011;10706;49.036;12.112;2024-03-06T12:52:56;18.20;;;6.60;;
21095;SDS011;10706;49.036;12.112;2024-03-06T12:55:22;22.73;;;6.72;;
21095;SDS011;10706;49.036;12.112;2024-03-06T12:57:48;19.33;;;6.90;;
21095;SDS011;10706;49.036;12.112;2024-03-06T13:00:15;17.55;;;6.53;;
21095;SDS011;10706;49.036;12.112;2024-03-06T13:02:42;18.55;;;6.65;;
21095;SDS011;10706;49.036;12.112;2024-03-06T13:05:09;19.23;;;7.28;;
21095;SDS011;10706;49.036;12.112;2024-03-06T13:07:35;19.02;;;6.53;;
21095;SDS011;10706;49.036;12.112;2024-03-06T13:10:01;20.10;;;7.57;;
21095;SDS011;10706;49.036;12.112;2024-03-06T13:12:28;21.23;;;7.55;;
21095;SDS011;10706;49.036;12.112;2024-03-06T13:14:54;21.00;;;7.93;;
21095;SDS011;10706;49.036;12.112;2024-03-06T13:17:21;23.10;;;8.52;;
21095;SDS011;10706;49.036;12.112;2024-03-06T13:19:47;20.92;;;8.05;;
21095;SDS011;10706;49.036;12.112;2024-03-06T13:22:13;19.33;;;7.32;;
21095;SDS011;10706;49.036;12.112;2024-03-06T13:24:39;22.38;;;8.32;;
21095;SDS011;10706;49.036;12.112;2024-03-06T13:27:05;22.77;;;8.27;;
21095;SDS011;10706;49.036;12.112;2024-03-06T13:29:31;20.10;;;8.13;;
21095;SDS011;10706;49.036;12.112;2024-03-06T13:31:57;21.67;;;8.40;;
21095;SDS011;10706;49.036;12.112;2024-03-06T13:34:23;20.08;;;7.93;;
21095;SDS011;10706;49.036;12.112;2024-03-06T13:36:48;20.38;;;9.18;;
21095;SDS011;10706;49.036;12.112;2024-03-06T13:39:14;21.70;;;8.65;;
21095;SDS011;10706;49.036;12.112;2024-03-06T13:41:41;24.80;;;7.88;;
21095;SDS011;10706;49.036;12.112;2024-03-06T13:44:07;25.25;;;9.30;;
21095;SDS011;10706;49.036;12.112;2024-03-06T13:46:34;23.63;;;8.50;;
21095;SDS011;10706;49.036;12.112;2024-03-06T13:49:00;25.58;;;8.98;;
21095;SDS011;10706;49.036;12.112;2024-03-06T13:51:25;22.67;;;9.45;;
21095;SDS011;10706;49.036;12.112;2024-03-06T13:53:52;25.60;;;10.88;;
21095;SDS011;10706;49.036;12.112;2024-03-06T13:56:17;23.02;;;8.50;;
21095;SDS011;10706;49.036;12.112;2024-03-06T13:58:43;23.23;;;8.80;;
21095;SDS011;10706;49.036;12.112;2024-03-06T14:01:09;21.35;;;8.45;;
21095;SDS011;10706;49.036;12.112;2024-03-06T14:03:35;21.17;;;8.75;;
21095;SDS011;10706;49.036;12.112;2024-03-06T14:06:03;24.30;;;8.82;;
21095;SDS011;10706;49.036;12.112;2024-03-06T14:08:29;19.42;;;7.88;;
21095;SDS011;10706;49.036;12.112;2024-03-06T14:10:55;23.38;;;8.43;;
21095;SDS011;10706;49.036;12.112;2024-03-06T14:13:21;23.73;;;8.23;;
21095;SDS011;10706;49.036;12.112;2024-03-06T14:15:47;23.27;;;8.98;;
21095;SDS011;10706;49.036;12.112;2024-03-06T14:18:14;22.25;;;8.77;;
21095;SDS011;10706;49.036;12.112;2024-03-06T14:20:40;19.55;;;8.00;;
21095;SDS011;10706;49.036;12.112;2024-03-06T14:23:06;21.88;;;8.43;;
21095;SDS011;10706;49.036;12.112;2024-03-06T14:25:32;20.55;;;8.27;;